createdAt,value
2023-02-27T00:02:19.020Z,3.80
2023-02-27T00:04:45.618Z,3.58
2023-02-27T00:07:12.618Z,3.70
2023-02-27T00:09:41.906Z,5.13
2023-02-27T00:12:09.436Z,4.25
2023-02-27T00:14:36.078Z,3.72
2023-02-27T00:17:02.698Z,4.32
2023-02-27T00:19:29.271Z,4.47
2023-02-27T00:21:55.790Z,4.07
2023-02-27T00:24:22.621Z,4.07
2023-02-27T00:26:49.198Z,3.97
2023-02-27T00:29:15.733Z,4.78
2023-02-27T00:31:42.314Z,4.20
2023-02-27T00:34:09.473Z,4.00
2023-02-27T00:36:35.987Z,4.05
2023-02-27T00:39:02.566Z,4.18
2023-02-27T00:41:29.166Z,4.72
2023-02-27T00:43:55.783Z,4.40
2023-02-27T00:46:23.159Z,4.28
2023-02-27T00:48:49.820Z,4.95
2023-02-27T00:51:16.367Z,4.53
2023-02-27T00:53:43.095Z,4.43
2023-02-27T00:56:09.675Z,5.03
2023-02-27T00:58:36.186Z,4.43
2023-02-27T01:01:02.876Z,5.13
2023-02-27T01:03:29.597Z,4.95
2023-02-27T01:05:56.155Z,4.90
2023-02-27T01:08:22.669Z,4.97
2023-02-27T01:10:49.142Z,5.00
2023-02-27T01:13:15.683Z,5.45
2023-02-27T01:15:42.286Z,5.38
2023-02-27T01:18:08.858Z,5.90
2023-02-27T01:20:35.405Z,6.13
2023-02-27T01:23:02.039Z,5.15
2023-02-27T01:25:30.629Z,5.82
2023-02-27T01:27:57.314Z,5.97
2023-02-27T01:30:23.894Z,6.63
2023-02-27T01:32:50.408Z,5.93
2023-02-27T01:35:18.033Z,6.03
2023-02-27T01:37:44.760Z,5.35
2023-02-27T01:40:12.157Z,6.43
2023-02-27T01:42:38.761Z,5.75
2023-02-27T01:45:11.398Z,6.10
2023-02-27T01:47:55.795Z,6.07
2023-02-27T01:50:22.986Z,6.20
2023-02-27T01:52:54.779Z,6.22
2023-02-27T01:55:23.022Z,6.20
2023-02-27T01:57:51.177Z,6.00
2023-02-27T02:00:18.577Z,6.07
2023-02-27T02:03:09.857Z,6.03
2023-02-27T02:05:36.386Z,5.78
2023-02-27T02:08:04.619Z,5.72
2023-02-27T02:10:33.045Z,6.38
2023-02-27T02:13:00.334Z,5.93
2023-02-27T02:15:39.437Z,6.43
2023-02-27T02:18:27.142Z,5.38
2023-02-27T02:21:21.647Z,6.40
2023-02-27T02:24:20.841Z,5.63
2023-02-27T02:27:03.885Z,6.13
2023-02-27T02:30:01.351Z,5.63
2023-02-27T02:32:52.651Z,6.30
2023-02-27T02:35:53.234Z,5.57
2023-02-27T02:38:41.583Z,5.55
2023-02-27T02:41:20.365Z,6.60
2023-02-27T02:44:09.056Z,5.97
2023-02-27T02:46:45.765Z,6.03
2023-02-27T02:49:26.556Z,6.13
2023-02-27T02:52:09.466Z,6.80
2023-02-27T02:54:44.846Z,5.90
2023-02-27T02:57:30.694Z,5.63
2023-02-27T03:00:04.431Z,6.22
2023-02-27T03:02:38.663Z,5.90
2023-02-27T03:05:15.217Z,5.93
2023-02-27T03:07:52.211Z,5.95
2023-02-27T03:10:37.596Z,5.68
2023-02-27T03:15:58.609Z,5.43
2023-02-27T03:18:37.327Z,5.35
2023-02-27T03:21:17.094Z,5.63
2023-02-27T03:23:47.222Z,16.08
2023-02-27T03:26:21.981Z,8.70
2023-02-27T03:29:04.820Z,9.02
2023-02-27T03:31:43.670Z,9.10
2023-02-27T03:34:26.474Z,4.97
2023-02-27T03:36:58.368Z,5.28
2023-02-27T03:39:48.145Z,4.80
2023-02-27T03:42:29.186Z,4.95
2023-02-27T03:45:18.788Z,4.95
2023-02-27T03:47:45.707Z,5.30
2023-02-27T03:50:12.872Z,4.93
2023-02-27T03:52:40.321Z,4.97
2023-02-27T03:55:19.296Z,5.13
2023-02-27T03:57:48.893Z,4.88
2023-02-27T04:00:21.069Z,5.05
2023-02-27T04:02:52.771Z,4.32
2023-02-27T04:05:20.975Z,4.72
2023-02-27T04:07:54.216Z,4.47
2023-02-27T04:11:01.295Z,4.95
2023-02-27T04:13:47.159Z,4.53
2023-02-27T04:17:04.515Z,4.35
2023-02-27T04:19:45.737Z,4.30
2023-02-27T04:22:18.081Z,4.68
2023-02-27T04:25:10.441Z,4.47
2023-02-27T04:27:45.869Z,4.50
2023-02-27T04:31:03.601Z,5.47
2023-02-27T04:33:48.773Z,4.35
2023-02-27T04:36:42.608Z,3.72
2023-02-27T04:39:18.098Z,3.70
2023-02-27T04:41:47.558Z,4.22
2023-02-27T04:44:16.257Z,4.10
2023-02-27T04:46:47.059Z,4.35
2023-02-27T04:49:19.506Z,4.15
2023-02-27T04:51:54.288Z,3.60
2023-02-27T04:54:45.908Z,4.35
2023-02-27T04:57:19.645Z,4.32
2023-02-27T04:59:51.696Z,3.83
2023-02-27T05:02:25.114Z,3.88
2023-02-27T05:04:57.024Z,3.60
2023-02-27T05:07:30.672Z,3.97
2023-02-27T05:10:05.090Z,4.18
2023-02-27T05:12:52.828Z,4.03
2023-02-27T05:15:33.067Z,3.25
2023-02-27T05:18:06.786Z,3.90
2023-02-27T05:20:49.332Z,3.50
2023-02-27T05:23:24.816Z,4.45
2023-02-27T05:25:59.359Z,3.10
2023-02-27T05:28:42.309Z,3.30
2023-02-27T05:31:27.126Z,3.78
2023-02-27T05:34:10.172Z,3.55
2023-02-27T05:37:01.252Z,3.60
2023-02-27T05:39:31.575Z,4.13
2023-02-27T05:42:02.820Z,3.35
2023-02-27T05:44:34.404Z,3.30
2023-02-27T05:47:06.414Z,3.33
2023-02-27T05:49:42.284Z,3.53
2023-02-27T05:52:14.926Z,3.50
2023-02-27T05:54:48.751Z,3.40
2023-02-27T05:57:24.213Z,3.05
2023-02-27T05:59:59.769Z,3.22
2023-02-27T06:02:26.450Z,3.00
2023-02-27T06:04:53.142Z,3.00
2023-02-27T06:07:19.700Z,3.17
2023-02-27T06:09:46.406Z,3.10
2023-02-27T06:12:13.075Z,3.38
2023-02-27T06:14:39.586Z,3.70
2023-02-27T06:17:06.127Z,2.92
2023-02-27T06:19:32.657Z,3.22
2023-02-27T06:21:59.195Z,3.28
2023-02-27T06:24:26.791Z,3.42
2023-02-27T06:26:53.588Z,2.88
2023-02-27T06:29:20.195Z,3.40
2023-02-27T06:31:46.688Z,3.17
2023-02-27T06:34:13.297Z,3.33
2023-02-27T06:36:40.057Z,3.70
2023-02-27T06:39:06.753Z,2.95
2023-02-27T06:41:33.275Z,3.00
2023-02-27T06:43:59.824Z,3.40
2023-02-27T06:46:26.926Z,3.00
2023-02-27T06:48:53.713Z,3.33
2023-02-27T06:51:20.280Z,3.55
2023-02-27T06:53:46.766Z,3.13
2023-02-27T06:56:13.356Z,3.65
2023-02-27T06:58:39.895Z,3.45
2023-02-27T07:01:06.402Z,3.28
2023-02-27T07:03:33.033Z,2.70
2023-02-27T07:05:59.655Z,2.75
2023-02-27T07:08:26.239Z,2.78
2023-02-27T07:10:52.847Z,3.20
2023-02-27T07:13:19.949Z,2.80
2023-02-27T07:15:46.972Z,3.13
2023-02-27T07:18:13.669Z,3.40
2023-02-27T07:20:40.412Z,3.65
2023-02-27T07:23:06.990Z,2.75
2023-02-27T07:25:36.272Z,2.80
2023-02-27T07:28:03.033Z,3.15
2023-02-27T07:30:30.834Z,2.83
2023-02-27T07:32:57.391Z,2.67
2023-02-27T07:35:24.013Z,2.65
2023-02-27T07:37:50.617Z,2.67
2023-02-27T07:40:17.463Z,2.45
2023-02-27T07:42:44.096Z,2.85
2023-02-27T07:45:11.143Z,2.70
2023-02-27T07:47:37.717Z,3.00
2023-02-27T07:50:04.778Z,2.72
2023-02-27T07:52:31.644Z,2.80
2023-02-27T07:54:58.147Z,2.67
2023-02-27T07:57:24.704Z,2.50
2023-02-27T07:59:51.496Z,2.53
2023-02-27T08:02:18.031Z,2.63
2023-02-27T08:04:44.579Z,3.22
2023-02-27T08:07:11.120Z,2.53
2023-02-27T08:09:37.666Z,2.70
2023-02-27T08:12:04.691Z,2.78
2023-02-27T08:14:31.282Z,2.90
2023-02-27T08:16:57.810Z,3.17
2023-02-27T08:19:24.346Z,2.63
2023-02-27T08:21:50.979Z,2.10
2023-02-27T08:24:17.769Z,2.80
2023-02-27T08:26:44.540Z,2.45
2023-02-27T08:29:11.099Z,2.03
2023-02-27T08:31:38.030Z,2.30
2023-02-27T08:34:10.282Z,2.38
2023-02-27T08:36:37.721Z,2.90
2023-02-27T08:39:04.647Z,2.40
2023-02-27T08:41:31.160Z,2.83
2023-02-27T08:43:57.730Z,2.50
2023-02-27T08:46:24.458Z,3.30
2023-02-27T08:48:51.104Z,2.72
2023-02-27T08:51:17.697Z,3.10
2023-02-27T08:53:44.362Z,2.33
2023-02-27T08:56:11.105Z,2.30
2023-02-27T08:58:37.805Z,2.28
2023-02-27T09:01:04.421Z,2.63
2023-02-27T09:03:31.647Z,3.28
2023-02-27T09:05:58.334Z,2.50
2023-02-27T09:08:24.935Z,2.97
2023-02-27T09:10:51.520Z,2.95
2023-02-27T09:13:18.118Z,2.85
2023-02-27T09:15:47.581Z,2.47
2023-02-27T09:18:14.130Z,2.78
2023-02-27T09:20:41.575Z,2.63
2023-02-27T09:23:08.199Z,2.60
2023-02-27T09:25:35.077Z,2.28
2023-02-27T09:28:01.786Z,2.78
2023-02-27T09:30:28.415Z,2.80
2023-02-27T09:32:54.973Z,2.45
2023-02-27T09:35:22.065Z,2.80
2023-02-27T09:37:49.659Z,2.45
2023-02-27T09:40:25.440Z,2.45
2023-02-27T09:42:57.122Z,2.55
2023-02-27T09:45:30.077Z,2.70
2023-02-27T09:48:03.836Z,2.72
2023-02-27T09:50:40.783Z,2.33
2023-02-27T09:53:35.677Z,2.55
2023-02-27T09:56:09.629Z,2.67
2023-02-27T09:58:55.903Z,2.85
2023-02-27T10:01:34.124Z,2.42
2023-02-27T10:04:18.663Z,2.67
2023-02-27T10:06:52.933Z,2.42
2023-02-27T10:09:30.093Z,2.58
2023-02-27T10:12:22.145Z,3.38
2023-02-27T10:14:52.240Z,2.50
2023-02-27T10:17:23.367Z,2.40
2023-02-27T10:19:52.690Z,3.00
2023-02-27T10:22:31.395Z,2.67
2023-02-27T10:25:09.028Z,2.40
2023-02-27T10:27:45.588Z,2.70
2023-02-27T10:30:30.033Z,2.55
2023-02-27T10:33:12.734Z,2.50
2023-02-27T10:35:43.041Z,2.03
2023-02-27T10:38:15.028Z,2.20
2023-02-27T10:40:42.865Z,2.47
2023-02-27T10:43:13.311Z,3.03
2023-02-27T10:45:39.822Z,2.55
2023-02-27T10:48:06.663Z,2.53
2023-02-27T10:50:37.145Z,2.30
2023-02-27T10:53:07.948Z,2.50
2023-02-27T10:55:40.846Z,2.60
2023-02-27T10:58:07.620Z,2.13
2023-02-27T11:00:47.938Z,2.30
2023-02-27T11:03:20.985Z,2.60
2023-02-27T11:06:22.364Z,2.97
2023-02-27T11:09:10.808Z,2.45
2023-02-27T11:11:38.049Z,2.80
2023-02-27T11:14:28.058Z,2.88
2023-02-27T11:17:02.497Z,2.75
2023-02-27T11:19:37.592Z,2.80
2023-02-27T11:22:14.262Z,3.00
2023-02-27T11:24:41.541Z,2.42
2023-02-27T11:27:21.980Z,3.05
2023-02-27T11:30:27.097Z,2.78
2023-02-27T11:32:56.919Z,3.10
2023-02-27T11:35:39.222Z,3.03
2023-02-27T11:38:16.504Z,3.60
2023-02-27T11:40:51.166Z,2.70
2023-02-27T11:43:21.782Z,3.08
2023-02-27T11:46:13.632Z,2.90
2023-02-27T11:48:52.822Z,3.95
2023-02-27T11:51:56.870Z,3.13
2023-02-27T11:54:38.102Z,3.15
2023-02-27T11:57:20.636Z,2.78
2023-02-27T11:59:54.434Z,2.97
2023-02-27T12:02:48.482Z,2.80
2023-02-27T12:05:23.110Z,2.97
2023-02-27T12:08:14.406Z,2.78
2023-02-27T12:11:18.547Z,3.60
2023-02-27T12:13:51.147Z,3.10
2023-02-27T12:16:24.488Z,4.93
2023-02-27T12:19:00.126Z,3.17
2023-02-27T12:21:56.664Z,3.03
2023-02-27T12:24:23.267Z,2.72
2023-02-27T12:27:00.593Z,3.25
2023-02-27T12:29:38.142Z,2.85
2023-02-27T12:32:22.722Z,3.20
2023-02-27T12:35:11.311Z,2.90
2023-02-27T12:37:38.150Z,3.78
2023-02-27T12:40:12.745Z,2.90
2023-02-27T12:43:00.376Z,2.83
2023-02-27T12:45:55.156Z,3.10
2023-02-27T12:48:29.053Z,3.17
2023-02-27T12:51:12.473Z,2.70
2023-02-27T12:53:38.990Z,3.30
2023-02-27T12:56:19.622Z,3.00
2023-02-27T12:59:01.214Z,2.78
2023-02-27T13:01:27.981Z,2.53
2023-02-27T13:04:09.226Z,2.80
2023-02-27T13:06:50.039Z,3.35
2023-02-27T13:09:40.931Z,2.80
2023-02-27T13:12:07.459Z,3.00
2023-02-27T13:14:51.928Z,2.80
2023-02-27T13:17:43.391Z,3.00
2023-02-27T13:20:09.955Z,3.33
2023-02-27T13:22:40.903Z,2.85
2023-02-27T13:25:14.486Z,3.55
2023-02-27T13:27:52.539Z,3.17
2023-02-27T13:30:47.269Z,3.47
2023-02-27T13:33:45.946Z,4.18
2023-02-27T13:36:35.739Z,3.50
2023-02-27T13:39:02.740Z,3.47
2023-02-27T13:41:29.668Z,3.15
2023-02-27T13:44:20.047Z,3.38
2023-02-27T13:46:46.863Z,3.65
2023-02-27T13:49:27.008Z,2.80
2023-02-27T13:51:58.683Z,3.38
2023-02-27T13:54:43.376Z,3.60
2023-02-27T13:57:21.480Z,3.75
2023-02-27T13:59:55.011Z,2.83
2023-02-27T14:02:31.887Z,3.35
2023-02-27T14:05:03.219Z,3.67
2023-02-27T14:07:51.512Z,3.05
2023-02-27T14:10:28.665Z,3.35
2023-02-27T14:12:57.595Z,3.42
2023-02-27T14:15:24.051Z,3.38
2023-02-27T14:17:56.928Z,2.97
2023-02-27T14:20:30.518Z,3.05
2023-02-27T14:23:15.322Z,3.42
2023-02-27T14:25:45.520Z,3.50
2023-02-27T14:28:21.742Z,3.50
2023-02-27T14:30:54.383Z,3.22
2023-02-27T14:33:39.239Z,3.30
2023-02-27T14:36:09.578Z,3.00
2023-02-27T14:38:38.316Z,3.05
2023-02-27T14:41:14.879Z,3.22
2023-02-27T14:43:46.408Z,3.05
2023-02-27T14:46:22.104Z,3.03
2023-02-27T14:48:53.635Z,3.63
2023-02-27T14:51:21.242Z,3.10
2023-02-27T14:54:02.219Z,3.13
2023-02-27T14:56:29.641Z,3.20
2023-02-27T14:59:04.296Z,3.97
2023-02-27T15:01:35.586Z,2.95
2023-02-27T15:04:04.689Z,3.00
2023-02-27T15:06:44.024Z,3.03
2023-02-27T15:09:22.775Z,2.55
2023-02-27T15:12:03.470Z,3.30
2023-02-27T15:14:35.676Z,3.10
2023-02-27T15:17:02.920Z,3.13
2023-02-27T15:19:30.540Z,2.72
2023-02-27T15:21:59.939Z,2.70
2023-02-27T15:24:47.767Z,3.38
2023-02-27T15:27:22.853Z,2.60
2023-02-27T15:29:52.797Z,3.03
2023-02-27T15:32:29.570Z,2.67
2023-02-27T15:34:58.495Z,2.50
2023-02-27T15:37:28.869Z,2.83
2023-02-27T15:39:56.433Z,2.38
2023-02-27T15:42:41.812Z,2.92
2023-02-27T15:47:35.840Z,2.80
2023-02-27T15:50:26.484Z,2.75
2023-02-27T15:53:10.839Z,2.88
2023-02-27T15:55:40.978Z,2.58
2023-02-27T15:58:25.265Z,2.83
2023-02-27T16:01:00.913Z,2.87
2023-02-27T16:03:34.268Z,2.97
2023-02-27T16:06:01.492Z,2.72
2023-02-27T16:08:31.224Z,2.72
2023-02-27T16:10:58.229Z,3.78
2023-02-27T16:13:29.462Z,3.20
2023-02-27T16:16:03.899Z,3.20
2023-02-27T16:18:51.169Z,3.15
2023-02-27T16:21:20.559Z,2.78
2023-02-27T16:23:47.932Z,2.83
2023-02-27T16:26:28.599Z,3.45
2023-02-27T16:28:59.908Z,3.00
2023-02-27T16:31:30.929Z,2.85
2023-02-27T16:34:01.084Z,2.85
2023-02-27T16:36:33.020Z,2.53
2023-02-27T16:38:59.673Z,2.72
2023-02-27T16:41:28.016Z,3.22
2023-02-27T16:43:54.702Z,3.05
2023-02-27T16:46:21.679Z,2.78
2023-02-27T16:48:54.115Z,3.17
2023-02-27T16:51:27.359Z,3.38
2023-02-27T16:53:56.360Z,3.10
2023-02-27T16:56:37.313Z,3.72
2023-02-27T16:59:05.342Z,3.33
2023-02-27T17:01:34.118Z,3.42
2023-02-27T17:04:01.024Z,3.53
2023-02-27T17:06:28.036Z,4.20
2023-02-27T17:08:56.097Z,3.60
2023-02-27T17:11:22.799Z,4.07
2023-02-27T17:13:49.404Z,3.83
2023-02-27T17:16:16.186Z,3.35
2023-02-27T17:18:42.871Z,3.58
2023-02-27T17:21:09.420Z,3.97
2023-02-27T17:23:35.980Z,3.50
2023-02-27T17:26:02.567Z,3.78
2023-02-27T17:28:29.194Z,3.80
2023-02-27T17:30:55.873Z,3.95
2023-02-27T17:33:22.487Z,4.50
2023-02-27T17:35:49.229Z,3.90
2023-02-27T17:38:15.952Z,4.80
2023-02-27T17:40:42.525Z,4.07
2023-02-27T17:43:09.108Z,4.43
2023-02-27T17:45:35.661Z,4.50
2023-02-27T17:48:02.195Z,5.18
2023-02-27T17:50:28.823Z,4.15
2023-02-27T17:52:55.462Z,4.22
2023-02-27T17:55:22.023Z,4.35
2023-02-27T17:57:48.563Z,5.18
2023-02-27T18:00:15.802Z,5.35
2023-02-27T18:02:45.506Z,6.07
2023-02-27T18:05:12.223Z,6.10
2023-02-27T18:07:39.699Z,5.80
2023-02-27T18:10:08.992Z,5.68
2023-02-27T18:12:36.487Z,6.40
2023-02-27T18:15:04.144Z,6.72
2023-02-27T18:17:30.671Z,6.05
2023-02-27T18:19:58.104Z,6.28
2023-02-27T18:22:25.164Z,7.13
2023-02-27T18:24:55.719Z,7.13
2023-02-27T18:27:22.651Z,7.07
2023-02-27T18:29:50.243Z,7.00
2023-02-27T18:32:17.617Z,6.97
2023-02-27T18:34:47.283Z,7.07
2023-02-27T18:37:13.887Z,7.30
2023-02-27T18:39:42.274Z,6.75
2023-02-27T18:42:08.835Z,7.20
2023-02-27T18:44:35.835Z,6.68
2023-02-27T18:47:02.413Z,6.15
2023-02-27T18:49:28.924Z,5.82
2023-02-27T18:51:55.502Z,6.93
2023-02-27T18:54:22.029Z,5.88
2023-02-27T18:56:50.776Z,7.13
2023-02-27T18:59:17.604Z,7.30
2023-02-27T19:01:44.340Z,6.90
2023-02-27T19:04:10.976Z,7.25
2023-02-27T19:06:41.200Z,6.72
2023-02-27T19:09:10.706Z,6.95
2023-02-27T19:11:37.525Z,7.30
2023-02-27T19:14:06.863Z,6.50
2023-02-27T19:16:34.303Z,7.50
2023-02-27T19:19:02.237Z,7.03
2023-02-27T19:21:29.404Z,7.18
2023-02-27T19:23:56.415Z,7.72
2023-02-27T19:26:24.459Z,7.35
2023-02-27T19:28:53.782Z,7.07
2023-02-27T19:31:22.071Z,7.85
2023-02-27T19:33:48.815Z,7.72
2023-02-27T19:36:21.049Z,8.20
2023-02-27T19:38:48.191Z,7.50
2023-02-27T19:41:16.966Z,6.68
2023-02-27T19:43:44.188Z,8.85
2023-02-27T19:46:14.060Z,8.95
2023-02-27T19:48:41.314Z,8.82
2023-02-27T19:51:10.288Z,8.15
2023-02-27T19:53:38.847Z,7.93
2023-02-27T19:56:08.266Z,8.85
2023-02-27T19:58:36.258Z,8.45
2023-02-27T20:01:04.041Z,7.60
2023-02-27T20:03:30.736Z,8.20
2023-02-27T20:05:58.378Z,8.57
2023-02-27T20:08:25.084Z,8.25
2023-02-27T20:10:58.771Z,9.15
2023-02-27T20:13:25.459Z,8.52
2023-02-27T20:16:07.616Z,8.77
2023-02-27T20:18:35.961Z,9.38
2023-02-27T20:21:06.293Z,9.82
2023-02-27T20:23:34.742Z,8.65
2023-02-27T20:26:01.752Z,8.73
2023-02-27T20:28:28.495Z,8.13
2023-02-27T20:30:55.194Z,8.60
2023-02-27T20:33:21.778Z,8.55
2023-02-27T20:35:48.546Z,8.82
2023-02-27T20:38:17.078Z,8.38
2023-02-27T20:40:43.614Z,9.30
2023-02-27T20:43:10.186Z,9.18
2023-02-27T20:45:39.946Z,9.10
2023-02-27T20:48:07.134Z,9.30
2023-02-27T20:50:34.367Z,9.43
2023-02-27T20:53:01.011Z,9.57
2023-02-27T20:55:27.678Z,9.85
2023-02-27T20:57:54.163Z,9.00
2023-02-27T21:00:21.388Z,9.45
2023-02-27T21:02:47.912Z,9.95
2023-02-27T21:05:14.423Z,10.10
2023-02-27T21:07:40.926Z,9.65
2023-02-27T21:10:08.024Z,9.55
2023-02-27T21:12:34.580Z,9.10
2023-02-27T21:15:01.137Z,8.63
2023-02-27T21:17:27.739Z,8.48
2023-02-27T21:19:56.872Z,9.23
2023-02-27T21:22:23.694Z,9.00
2023-02-27T21:24:52.034Z,9.05
2023-02-27T21:27:21.353Z,9.48
2023-02-27T21:29:48.826Z,9.23
2023-02-27T21:32:15.748Z,9.55
2023-02-27T21:34:42.284Z,10.07
2023-02-27T21:37:10.643Z,9.05
2023-02-27T21:39:37.276Z,9.30
2023-02-27T21:42:04.051Z,9.93
2023-02-27T21:44:31.983Z,11.23
2023-02-27T21:46:58.696Z,8.30
2023-02-27T21:49:27.489Z,8.15
2023-02-27T21:51:57.443Z,8.30
2023-02-27T21:54:27.643Z,8.30
2023-02-27T21:56:54.164Z,8.95
2023-02-27T21:59:21.711Z,9.68
2023-02-27T22:01:48.720Z,8.82
2023-02-27T22:04:16.711Z,8.70
2023-02-27T22:06:46.654Z,8.70
2023-02-27T22:09:13.210Z,9.18
2023-02-27T22:11:41.007Z,8.60
2023-02-27T22:14:08.982Z,9.80
2023-02-27T22:16:35.877Z,9.05
2023-02-27T22:19:10.891Z,9.43
2023-02-27T22:24:05.011Z,10.55
2023-02-27T22:26:32.173Z,9.55
2023-02-27T22:28:59.875Z,10.00
2023-02-27T22:31:30.583Z,10.23
2023-02-27T22:34:01.745Z,10.23
2023-02-27T22:36:30.876Z,9.35
2023-02-27T22:38:57.879Z,9.82
2023-02-27T22:41:30.710Z,9.88
2023-02-27T22:43:58.880Z,8.43
2023-02-27T22:46:37.715Z,8.63
2023-02-27T22:49:07.537Z,9.15
2023-02-27T22:51:34.556Z,8.70
2023-02-27T22:54:03.171Z,9.45
2023-02-27T22:56:30.444Z,9.02
2023-02-27T22:58:57.479Z,8.30
2023-02-27T23:01:28.505Z,8.98
2023-02-27T23:03:57.972Z,9.10
2023-02-27T23:06:27.878Z,8.80
2023-02-27T23:08:54.587Z,8.70
2023-02-27T23:11:21.729Z,8.98
2023-02-27T23:13:51.265Z,8.15
2023-02-27T23:16:18.511Z,9.20
2023-02-27T23:18:56.574Z,8.88
2023-02-27T23:21:29.720Z,8.73
2023-02-27T23:23:58.110Z,9.13
2023-02-27T23:26:28.571Z,7.88
2023-02-27T23:28:56.228Z,9.60
2023-02-27T23:31:23.092Z,9.10
2023-02-27T23:33:50.180Z,8.70
2023-02-27T23:36:16.778Z,9.15
2023-02-27T23:38:46.457Z,10.50
2023-02-27T23:41:16.774Z,8.43
2023-02-27T23:43:44.835Z,8.93
2023-02-27T23:46:14.559Z,9.40
2023-02-27T23:48:43.099Z,10.35
2023-02-27T23:51:11.174Z,9.63
2023-02-27T23:53:40.352Z,10.70
2023-02-27T23:56:21.397Z,9.27
2023-02-27T23:58:52.296Z,10.30
